Time;durP1;ratioP1;P1;durP2;ratioP2;P2;SDS_P1;SDS_P2;PMS_P1;PMS_P2;Temp;Humidity;BMP_temperature;BMP_pressure;BME280_temperature;BME280_humidity;BME280_pressure;Samples;Min_cycle;Max_cycle;Signal;HPM_P1;HPM_P2
2023/03/07 00:02:59;;;;;;;28.63;19.53;;;4.70;99.90;;;;;;10309824;28;20234;-76
2023/03/07 00:08:00;;;;;;;28.77;19.93;;;4.70;99.90;;;;;;10313973;28;20408;-75
2023/03/07 00:13:00;;;;;;;27.20;19.20;;;4.70;99.90;;;;;;10303882;28;20229;-75
2023/03/07 00:18:01;;;;;;;27.00;19.03;;;4.70;99.90;;;;;;10314435;28;20222;-76
2023/03/07 00:23:01;;;;;;;28.43;19.33;;;4.70;99.90;;;;;;10309362;28;20233;-76
2023/03/07 00:28:02;;;;;;;29.83;19.53;;;4.70;99.90;;;;;;10310645;28;20222;-75
2023/03/07 00:33:03;;;;;;;24.13;18.03;;;4.60;99.90;;;;;;10316743;28;20729;-75
2023/03/07 00:38:03;;;;;;;26.53;18.27;;;4.60;99.90;;;;;;10324731;28;20226;-77
2023/03/07 00:43:04;;;;;;;26.43;17.93;;;4.50;99.90;;;;;;10315387;28;20282;-75
2023/03/07 00:48:04;;;;;;;27.53;18.60;;;4.40;99.90;;;;;;10316868;28;20697;-75
2023/03/07 00:53:05;;;;;;;27.73;18.93;;;4.30;99.90;;;;;;10317407;28;20233;-76
2023/03/07 00:58:06;;;;;;;28.17;17.93;;;4.30;99.90;;;;;;10319211;28;20221;-73
2023/03/07 01:03:06;;;;;;;28.80;18.43;;;4.20;99.90;;;;;;10326492;28;20322;-75
2023/03/07 01:08:10;;;;;;;27.20;19.13;;;4.20;99.90;;;;;;10320174;28;20679;-73
2023/03/07 01:13:11;;;;;;;27.40;17.53;;;4.20;99.90;;;;;;10316670;28;20349;-73
2023/03/07 01:18:12;;;;;;;27.73;17.70;;;4.10;99.90;;;;;;10320079;28;20214;-71
2023/03/07 01:23:12;;;;;;;31.40;19.87;;;3.90;99.90;;;;;;10318987;28;20247;-71
2023/03/07 01:28:13;;;;;;;28.50;19.27;;;3.80;99.90;;;;;;10311485;28;20248;-76
2023/03/07 01:33:14;;;;;;;29.03;18.67;;;3.70;99.90;;;;;;10328863;28;20236;-75
2023/03/07 01:38:14;;;;;;;27.10;18.57;;;3.70;99.90;;;;;;10327263;28;20326;-75
2023/03/07 01:43:23;;;;;;;30.17;19.10;;;3.70;99.90;;;;;;10328815;28;20861;-75
2023/03/07 01:48:24;;;;;;;29.30;19.73;;;3.70;99.90;;;;;;10327270;28;20217;-74
2023/03/07 01:53:24;;;;;;;29.83;20.40;;;3.60;99.90;;;;;;10327387;28;20222;-74
2023/03/07 01:58:25;;;;;;;28.40;18.80;;;3.70;99.90;;;;;;10329080;28;20217;-75
2023/03/07 02:03:34;;;;;;;27.53;17.90;;;3.70;99.90;;;;;;10329413;28;20230;-69
2023/03/07 02:08:36;;;;;;;27.93;18.77;;;3.80;99.90;;;;;;10327498;28;20222;-69
2023/03/07 02:13:37;;;;;;;26.83;18.47;;;3.80;99.90;;;;;;10328985;28;20217;-68
2023/03/07 02:18:43;;;;;;;28.27;18.50;;;3.80;99.90;;;;;;10327404;28;20213;-70
2023/03/07 02:24:02;;;;;;;30.43;19.73;;;3.80;99.90;;;;;;10321545;28;20218;-69
2023/03/07 02:29:02;;;;;;;31.67;20.13;;;3.90;99.90;;;;;;10306072;28;20760;-67
2023/03/07 02:34:15;;;;;;;27.97;18.93;;;4.00;99.90;;;;;;10313144;28;20313;-68
2023/03/07 02:39:17;;;;;;;30.47;19.67;;;4.00;99.90;;;;;;10308890;28;20234;-68
2023/03/07 02:44:18;;;;;;;25.50;18.03;;;4.00;99.90;;;;;;10314823;28;20221;-67
2023/03/07 02:49:18;;;;;;;23.70;17.57;;;4.00;99.90;;;;;;10308106;28;20745;-66
2023/03/07 02:54:19;;;;;;;22.20;16.40;;;4.00;99.90;;;;;;10327220;28;20640;-66
2023/03/07 02:59:19;;;;;;;23.63;16.77;;;4.10;99.90;;;;;;10306951;28;20281;-68
2023/03/07 03:04:20;;;;;;;20.87;15.20;;;4.10;99.90;;;;;;10315290;28;20237;-67
2023/03/07 03:09:21;;;;;;;22.97;15.53;;;4.20;99.90;;;;;;10313911;28;20220;-68
2023/03/07 03:14:21;;;;;;;19.03;15.07;;;4.20;99.90;;;;;;10307041;28;20582;-67
2023/03/07 03:19:22;;;;;;;19.17;14.20;;;4.20;99.90;;;;;;10314781;28;20234;-68
2023/03/07 03:24:22;;;;;;;20.03;13.43;;;4.30;99.90;;;;;;10312982;28;20224;-67
2023/03/07 03:29:24;;;;;;;18.70;13.53;;;4.30;99.90;;;;;;10327162;28;20280;-67
2023/03/07 03:34:27;;;;;;;18.37;13.17;;;4.30;99.90;;;;;;10305651;28;20581;-69
2023/03/07 03:39:28;;;;;;;17.33;12.67;;;4.30;99.90;;;;;;10308058;28;20264;-69
2023/03/07 03:44:28;;;;;;;17.77;13.07;;;4.30;99.90;;;;;;10304943;28;20277;-70
2023/03/07 03:49:30;;;;;;;17.17;12.20;;;4.40;99.90;;;;;;10314389;28;20580;-68
2023/03/07 03:54:31;;;;;;;13.63;11.23;;;4.40;99.90;;;;;;10305052;28;20248;-69
2023/03/07 03:59:31;;;;;;;14.47;11.80;;;4.40;99.90;;;;;;10308793;28;20233;-68
2023/03/07 04:04:32;;;;;;;18.27;12.67;;;4.50;99.90;;;;;;10316092;28;20218;-68
2023/03/07 04:09:32;;;;;;;17.83;13.63;;;4.50;99.90;;;;;;10310222;28;20314;-70
2023/03/07 04:14:33;;;;;;;17.30;12.93;;;4.50;99.90;;;;;;10325932;28;20229;-69
2023/03/07 04:19:33;;;;;;;16.73;12.67;;;4.50;99.90;;;;;;10339005;28;20585;-71
2023/03/07 04:24:34;;;;;;;17.33;12.60;;;4.50;99.90;;;;;;10323823;28;20221;-68
2023/03/07 04:29:34;;;;;;;17.53;12.63;;;4.60;99.90;;;;;;10317865;28;20226;-68
2023/03/07 04:34:35;;;;;;;15.07;12.07;;;4.60;99.90;;;;;;10324886;28;20225;-68
2023/03/07 04:39:36;;;;;;;15.43;12.70;;;4.60;99.90;;;;;;10315371;28;20791;-68
2023/03/07 04:44:36;;;;;;;16.73;13.03;;;4.50;99.90;;;;;;10310246;28;20214;-67
2023/03/07 04:49:40;;;;;;;17.67;13.27;;;4.50;99.90;;;;;;10328163;28;20224;-69
2023/03/07 04:54:40;;;;;;;17.90;12.57;;;4.60;99.90;;;;;;10317748;28;20817;-69
2023/03/07 04:59:41;;;;;;;16.30;12.73;;;4.60;99.90;;;;;;10318791;28;20260;-67
2023/03/07 05:04:41;;;;;;;17.90;13.33;;;4.50;99.90;;;;;;10309086;28;20656;-68
2023/03/07 05:09:45;;;;;;;17.77;13.33;;;4.50;99.90;;;;;;10318716;28;20277;-67
2023/03/07 05:14:46;;;;;;;20.10;13.80;;;4.50;99.90;;;;;;10315506;28;20602;-69
2023/03/07 05:19:46;;;;;;;19.87;13.83;;;4.40;99.90;;;;;;10315738;28;20236;-69
2023/03/07 05:24:47;;;;;;;17.03;13.10;;;4.40;99.90;;;;;;10321432;28;20214;-69
2023/03/07 05:29:47;;;;;;;20.77;14.50;;;4.30;99.90;;;;;;10325365;28;20229;-69
2023/03/07 05:34:48;;;;;;;18.97;14.23;;;4.30;99.90;;;;;;10315596;28;20234;-69
2023/03/07 05:39:49;;;;;;;19.03;14.10;;;4.20;99.90;;;;;;10307343;28;20226;-75
2023/03/07 05:44:49;;;;;;;20.93;15.23;;;4.20;99.90;;;;;;10314335;28;20994;-73
2023/03/07 05:49:50;;;;;;;22.77;15.07;;;4.20;99.90;;;;;;10320995;28;20229;-73
2023/03/07 05:54:50;;;;;;;23.00;15.73;;;4.20;99.90;;;;;;10313971;28;20914;-72
2023/03/07 05:59:51;;;;;;;20.77;15.77;;;4.20;99.90;;;;;;10320178;28;20329;-71
2023/03/07 06:04:52;;;;;;;21.83;15.50;;;4.10;99.90;;;;;;10313446;28;20222;-73
2023/03/07 06:09:55;;;;;;;22.17;14.97;;;4.10;99.90;;;;;;10313258;28;20243;-69
2023/03/07 06:14:55;;;;;;;22.77;15.20;;;4.20;99.90;;;;;;10318475;28;20218;-70
2023/03/07 06:19:56;;;;;;;21.10;14.43;;;4.20;99.90;;;;;;10312328;28;20690;-71
2023/03/07 06:24:57;;;;;;;22.37;15.00;;;4.20;99.90;;;;;;10313704;28;20225;-70
2023/03/07 06:29:57;;;;;;;21.23;15.10;;;4.20;99.90;;;;;;10311849;28;20294;-67
2023/03/07 06:34:58;;;;;;;21.47;14.13;;;4.20;99.90;;;;;;10304808;28;20220;-68
2023/03/07 06:39:58;;;;;;;20.13;13.63;;;4.20;99.90;;;;;;10311064;28;20233;-71
2023/03/07 06:44:59;;;;;;;25.70;15.60;;;4.30;99.90;;;;;;10312100;28;20355;-71
2023/03/07 06:50:01;;;;;;;19.20;14.00;;;4.30;99.90;;;;;;10310300;28;20873;-72
2023/03/07 06:55:02;;;;;;;19.00;13.57;;;4.40;99.90;;;;;;10322532;28;20252;-71
2023/03/07 07:00:05;;;;;;;18.80;13.27;;;4.40;99.90;;;;;;10317163;28;20221;-72
2023/03/07 07:05:06;;;;;;;18.30;13.07;;;4.60;99.90;;;;;;10300852;28;20257;-71
2023/03/07 07:10:07;;;;;;;17.67;13.13;;;4.70;99.90;;;;;;10320534;28;20179;-72
2023/03/07 07:15:08;;;;;;;18.07;12.50;;;4.90;99.90;;;;;;10308185;28;20186;-71
2023/03/07 07:20:10;;;;;;;20.27;13.27;;;5.00;99.90;;;;;;10316742;28;20205;-71
2023/03/07 07:25:10;;;;;;;16.17;12.00;;;5.30;99.90;;;;;;10323796;28;20182;-71
2023/03/07 07:30:12;;;;;;;15.40;11.93;;;5.60;99.90;;;;;;10314116;28;20585;-71
2023/03/07 07:35:14;;;;;;;15.27;10.63;;;6.20;99.90;;;;;;10311160;28;20210;-71
2023/03/07 07:40:15;;;;;;;19.23;11.10;;;6.90;99.90;;;;;;10313246;28;20250;-70
2023/03/07 07:45:15;;;;;;;15.83;10.83;;;7.60;99.90;;;;;;10305272;28;20270;-72
2023/03/07 07:50:17;;;;;;;15.70;10.97;;;8.50;99.90;;;;;;10310170;28;20212;-71
2023/03/07 07:55:18;;;;;;;14.00;10.27;;;9.50;99.90;;;;;;10306438;28;20561;-71
2023/03/07 08:00:21;;;;;;;13.20;9.47;;;10.80;99.90;;;;;;10312991;28;20213;-71
2023/03/07 08:05:22;;;;;;;13.03;9.57;;;11.90;99.90;;;;;;10309526;28;20261;-72
2023/03/07 08:10:23;;;;;;;11.00;9.27;;;13.40;99.90;;;;;;10312151;28;20199;-71
2023/03/07 08:15:23;;;;;;;11.37;9.80;;;15.20;95.10;;;;;;10305947;28;20550;-71
2023/03/07 08:20:24;;;;;;;11.90;9.87;;;16.30;87.70;;;;;;10304544;28;20234;-72
2023/03/07 08:25:25;;;;;;;14.53;9.93;;;16.40;82.00;;;;;;10310042;28;20227;-71
2023/03/07 08:30:28;;;;;;;12.23;9.23;;;16.50;78.10;;;;;;10313197;28;20288;-71
2023/03/07 08:35:29;;;;;;;15.23;9.50;;;17.10;73.50;;;;;;10309225;28;20670;-71
2023/03/07 08:40:30;;;;;;;11.63;9.40;;;16.80;72.60;;;;;;10313171;28;20279;-71
2023/03/07 08:45:31;;;;;;;11.57;8.93;;;16.90;70.00;;;;;;10325467;28;20283;-72
2023/03/07 08:50:31;;;;;;;11.20;8.93;;;16.10;72.70;;;;;;10324313;28;20218;-70
2023/03/07 08:55:34;;;;;;;14.57;9.27;;;15.70;73.30;;;;;;10310261;28;20253;-71
2023/03/07 09:00:36;;;;;;;12.43;9.07;;;15.00;75.20;;;;;;10309851;28;20242;-71
2023/03/07 09:05:40;;;;;;;12.63;9.27;;;14.50;76.70;;;;;;10314566;28;20217;-71
2023/03/07 09:10:40;;;;;;;12.07;8.27;;;14.80;76.50;;;;;;10323046;28;20233;-71
2023/03/07 09:15:41;;;;;;;11.07;8.50;;;15.70;72.90;;;;;;10322476;28;20237;-71
2023/03/07 09:20:41;;;;;;;10.47;8.00;;;15.00;73.20;;;;;;10309170;28;20228;-70
2023/03/07 09:25:43;;;;;;;10.03;7.40;;;14.40;73.30;;;;;;10314922;28;20583;-72
2023/03/07 09:30:43;;;;;;;11.83;8.63;;;14.10;74.30;;;;;;10315142;28;20300;-71
2023/03/07 09:35:44;;;;;;;11.23;7.20;;;13.00;77.80;;;;;;10335210;28;20249;-71
2023/03/07 09:40:47;;;;;;;8.90;6.80;;;12.90;78.20;;;;;;10307140;28;20230;-71
2023/03/07 09:46:35;;;;;;;10.43;6.63;;;13.90;75.40;;;;;;10314243;28;20306;-72
2023/03/07 09:51:40;;;;;;;9.43;6.43;;;15.30;70.30;;;;;;10307139;28;20295;-71
2023/03/07 09:56:46;;;;;;;9.67;6.73;;;14.50;71.00;;;;;;10306971;28;20222;-71
2023/03/07 10:01:59;;;;;;;12.03;6.53;;;13.60;72.30;;;;;;10321086;28;20237;-71
2023/03/07 10:07:02;;;;;;;11.20;6.30;;;12.60;75.30;;;;;;10314741;28;20231;-72
2023/03/07 10:12:47;;;;;;;8.50;6.37;;;12.10;78.30;;;;;;10311239;28;20218;-71
2023/03/07 10:18:00;;;;;;;8.33;5.97;;;12.10;78.60;;;;;;10313927;28;20230;-71
2023/03/07 10:23:31;;;;;;;11.20;6.30;;;13.10;75.60;;;;;;10322208;28;20475;-71
2023/03/07 10:28:34;;;;;;;9.53;6.67;;;14.20;70.10;;;;;;10314433;28;20226;-71
2023/03/07 10:33:37;;;;;;;8.23;6.40;;;13.70;69.90;;;;;;10310533;28;20308;-70
2023/03/07 10:39:01;;;;;;;7.80;6.23;;;12.40;73.80;;;;;;10320952;28;20225;-70
2023/03/07 10:44:01;;;;;;;13.43;6.47;;;11.30;77.60;;;;;;10306846;28;20231;-71
2023/03/07 10:49:05;;;;;;;8.60;6.07;;;10.30;81.30;;;;;;10328553;28;20214;-71
2023/03/07 10:54:13;;;;;;;9.30;6.40;;;9.80;83.50;;;;;;10312701;28;20227;-71
2023/03/07 10:59:24;;;;;;;16.67;6.43;;;9.60;85.20;;;;;;10307918;28;20650;-72
2023/03/07 11:04:28;;;;;;;9.17;6.37;;;9.70;86.60;;;;;;10312733;28;20233;-71
2023/03/07 11:09:34;;;;;;;8.23;5.20;;;10.50;83.60;;;;;;10311519;28;20226;-70
2023/03/07 11:14:45;;;;;;;7.57;5.70;;;12.50;77.20;;;;;;10309405;28;20669;-71
2023/03/07 11:19:47;;;;;;;7.50;6.07;;;14.20;68.20;;;;;;10311992;28;20290;-72
2023/03/07 11:25:11;;;;;;;8.37;5.70;;;14.10;67.80;;;;;;10317684;28;20218;-73
2023/03/07 11:30:16;;;;;;;9.53;6.30;;;14.00;68.10;;;;;;10293541;28;20279;-72
2023/03/07 11:35:33;;;;;;;8.63;6.03;;;13.30;69.20;;;;;;10320993;28;20249;-71
2023/03/07 11:40:39;;;;;;;8.93;6.13;;;13.00;70.00;;;;;;10303798;28;20230;-72
2023/03/07 11:45:59;;;;;;;8.40;6.47;;;12.40;72.80;;;;;;10323850;28;20229;-72
2023/03/07 11:51:02;;;;;;;11.47;6.23;;;12.30;73.20;;;;;;10302564;28;20241;-71
2023/03/07 11:56:44;;;;;;;8.40;5.90;;;12.20;73.60;;;;;;10304610;28;20249;-71
2023/03/07 12:02:01;;;;;;;6.87;5.67;;;12.20;75.30;;;;;;10306363;28;20326;-71
2023/03/07 12:07:17;;;;;;;9.17;6.70;;;12.40;74.00;;;;;;10304212;28;20237;-72
2023/03/07 12:12:38;;;;;;;10.13;6.93;;;12.40;74.20;;;;;;10302397;28;20229;-72
2023/03/07 12:18:14;;;;;;;7.90;6.53;;;12.30;74.80;;;;;;10310935;28;20836;-72
2023/03/07 12:23:24;;;;;;;7.77;5.97;;;11.80;75.00;;;;;;10319692;28;20902;-71
2023/03/07 12:28:46;;;;;;;10.07;7.10;;;11.00;77.50;;;;;;10319591;28;20230;-72
2023/03/07 12:34:05;;;;;;;13.17;6.73;;;10.30;80.40;;;;;;10314081;28;20763;-72
2023/03/07 12:39:14;;;;;;;10.73;7.03;;;9.60;83.80;;;;;;10327288;28;20601;-72
2023/03/07 12:44:42;;;;;;;14.53;8.27;;;9.30;86.00;;;;;;10335327;28;20225;-72
2023/03/07 12:50:00;;;;;;;8.63;7.00;;;9.10;87.90;;;;;;10308838;28;20244;-71
2023/03/07 12:55:23;;;;;;;10.67;7.30;;;9.00;88.90;;;;;;10314176;28;20245;-71
2023/03/07 13:00:24;;;;;;;9.07;7.00;;;9.00;88.70;;;;;;10311837;28;20238;-72
2023/03/07 13:05:26;;;;;;;8.60;6.47;;;9.00;88.50;;;;;;10313460;28;20229;-72
2023/03/07 13:10:27;;;;;;;9.27;6.97;;;9.00;90.10;;;;;;10318285;28;20284;-72
2023/03/07 13:16:01;;;;;;;11.07;6.67;;;9.10;89.80;;;;;;10316136;28;20293;-70
2023/03/07 13:21:10;;;;;;;8.60;6.70;;;9.10;90.20;;;;;;10307909;28;20262;-71
2023/03/07 13:26:21;;;;;;;9.50;6.33;;;8.90;90.60;;;;;;10313026;28;20560;-71
2023/03/07 13:31:27;;;;;;;8.50;7.00;;;8.90;90.60;;;;;;10312494;28;20236;-70
2023/03/07 13:36:35;;;;;;;9.03;7.23;;;8.90;91.50;;;;;;10323066;28;20221;-73
2023/03/07 13:41:48;;;;;;;10.47;6.93;;;8.80;91.30;;;;;;10309833;28;20224;-72
2023/03/07 13:46:51;;;;;;;11.03;8.43;;;8.80;91.60;;;;;;10314597;28;20739;-72
2023/03/07 13:52:30;;;;;;;9.53;7.60;;;8.70;92.00;;;;;;10305306;28;20237;-72
2023/03/07 13:57:36;;;;;;;11.30;7.97;;;8.70;92.60;;;;;;10314028;28;20225;-71
2023/03/07 14:02:40;;;;;;;10.47;8.13;;;8.70;92.80;;;;;;10313236;28;20236;-73
2023/03/07 14:07:41;;;;;;;11.93;8.30;;;8.60;93.20;;;;;;10307096;28;20226;-72
2023/03/07 14:13:24;;;;;;;10.47;8.23;;;8.70;93.40;;;;;;10313520;28;20351;-71
2023/03/07 14:18:45;;;;;;;10.13;7.43;;;8.60;93.70;;;;;;10306378;28;20274;-72
2023/03/07 14:24:24;;;;;;;9.07;7.10;;;8.50;94.10;;;;;;10313038;28;20287;-72
2023/03/07 14:29:28;;;;;;;11.00;8.50;;;8.50;94.60;;;;;;10309945;28;20260;-72
2023/03/07 14:34:34;;;;;;;11.57;7.50;;;8.60;94.50;;;;;;10327579;28;20226;-72
2023/03/07 14:39:35;;;;;;;10.73;7.50;;;8.60;94.10;;;;;;10313772;28;20325;-72
2023/03/07 14:44:41;;;;;;;11.83;8.13;;;8.60;94.50;;;;;;10314046;28;20307;-72
2023/03/07 14:50:12;;;;;;;9.57;7.13;;;8.70;94.00;;;;;;10304810;28;20259;-71
2023/03/07 14:55:17;;;;;;;9.27;7.93;;;8.70;94.10;;;;;;10306720;28;20254;-72
2023/03/07 15:00:25;;;;;;;11.50;7.93;;;8.60;94.20;;;;;;10308339;28;20438;-71
2023/03/07 15:05:32;;;;;;;10.10;8.03;;;8.50;94.50;;;;;;10308150;28;20210;-71
2023/03/07 15:10:39;;;;;;;10.20;7.13;;;8.40;94.80;;;;;;10319145;28;20629;-71
2023/03/07 15:15:47;;;;;;;9.00;6.60;;;8.30;94.70;;;;;;10318021;28;20554;-72
2023/03/07 15:20:49;;;;;;;8.30;6.33;;;8.30;95.70;;;;;;10303712;28;20257;-73
2023/03/07 15:25:52;;;;;;;8.03;6.00;;;8.30;96.10;;;;;;10294173;28;20213;-72
2023/03/07 15:30:54;;;;;;;9.57;5.87;;;8.40;96.70;;;;;;10317990;28;20298;-71
2023/03/07 15:36:10;;;;;;;7.60;6.00;;;8.40;97.30;;;;;;10319139;28;20235;-72
2023/03/07 15:41:28;;;;;;;7.60;5.60;;;8.40;98.40;;;;;;10311764;28;20303;-74
2023/03/07 15:46:31;;;;;;;8.40;6.60;;;8.30;99.10;;;;;;10316618;28;20293;-70
2023/03/07 15:51:36;;;;;;;8.47;6.83;;;8.30;99.90;;;;;;10317547;28;20312;-69
2023/03/07 15:56:39;;;;;;;9.27;6.33;;;8.30;99.90;;;;;;10303762;28;20236;-69
2023/03/07 16:01:39;;;;;;;11.70;7.63;;;8.10;99.90;;;;;;10301909;28;20575;-71
2023/03/07 16:06:44;;;;;;;10.90;7.37;;;8.10;99.90;;;;;;10316572;28;20229;-69
2023/03/07 16:11:46;;;;;;;10.70;7.43;;;7.90;99.90;;;;;;10329424;28;20377;-72
2023/03/07 16:16:47;;;;;;;10.87;7.53;;;7.80;99.90;;;;;;10308486;28;20956;-71
2023/03/07 16:21:48;;;;;;;9.10;7.27;;;7.70;99.90;;;;;;10307909;28;20380;-73
2023/03/07 16:26:48;;;;;;;11.03;7.83;;;7.70;99.90;;;;;;10308309;28;20275;-71
2023/03/07 16:31:49;;;;;;;11.80;8.13;;;7.70;99.90;;;;;;10315345;28;20224;-72
2023/03/07 16:36:50;;;;;;;10.40;8.47;;;7.50;99.90;;;;;;10308458;28;20229;-72
2023/03/07 16:41:50;;;;;;;13.10;8.43;;;7.50;99.90;;;;;;10314435;28;20384;-72
2023/03/07 16:47:08;;;;;;;11.90;8.10;;;7.40;99.90;;;;;;10307274;28;20225;-72
2023/03/07 16:52:12;;;;;;;12.30;7.77;;;7.30;99.90;;;;;;10305978;28;20717;-69
2023/03/07 16:57:15;;;;;;;10.23;8.07;;;7.30;99.90;;;;;;10313752;28;20372;-72
2023/03/07 17:02:19;;;;;;;13.90;7.70;;;7.30;99.90;;;;;;10311804;28;20237;-71
2023/03/07 17:07:22;;;;;;;11.23;7.97;;;7.20;99.90;;;;;;10315727;28;20214;-72
2023/03/07 17:12:34;;;;;;;10.53;7.70;;;7.20;99.90;;;;;;10308941;28;20260;-76
2023/03/07 17:17:35;;;;;;;9.97;7.67;;;7.20;99.90;;;;;;10300357;28;20581;-75
2023/03/07 17:22:36;;;;;;;13.63;7.90;;;7.20;99.90;;;;;;10301554;28;20235;-71
2023/03/07 17:27:42;;;;;;;12.33;7.80;;;7.20;99.90;;;;;;10320659;28;20586;-72
2023/03/07 17:32:42;;;;;;;12.53;7.63;;;7.20;99.90;;;;;;10319532;28;20221;-73
2023/03/07 17:37:44;;;;;;;12.53;7.77;;;7.20;99.90;;;;;;10314681;28;20605;-74
2023/03/07 17:42:49;;;;;;;11.97;7.87;;;7.20;99.90;;;;;;10308184;28;20231;-74
2023/03/07 17:47:52;;;;;;;12.57;7.50;;;7.20;99.90;;;;;;10316669;28;20226;-72
2023/03/07 17:52:54;;;;;;;10.43;7.53;;;7.20;99.90;;;;;;10319788;28;20301;-71
2023/03/07 17:57:54;;;;;;;9.63;7.47;;;7.20;99.90;;;;;;10313307;28;20230;-72
2023/03/07 18:02:55;;;;;;;10.57;7.67;;;7.20;99.90;;;;;;10319519;28;20711;-73
2023/03/07 18:07:56;;;;;;;11.57;7.77;;;7.30;99.90;;;;;;10309282;28;20698;-72
2023/03/07 18:12:56;;;;;;;11.07;7.53;;;7.30;99.90;;;;;;10312835;28;20244;-70
2023/03/07 18:17:58;;;;;;;9.50;7.07;;;7.20;99.90;;;;;;10305478;28;20365;-71
2023/03/07 18:22:58;;;;;;;11.80;7.07;;;7.20;99.90;;;;;;10306089;28;20255;-70
2023/03/07 18:28:03;;;;;;;10.73;7.20;;;7.30;99.90;;;;;;10318961;28;20306;-68
2023/03/07 18:33:04;;;;;;;9.30;7.10;;;7.30;99.90;;;;;;10327219;28;20229;-72
2023/03/07 18:38:05;;;;;;;8.87;6.87;;;7.30;99.90;;;;;;10315695;28;20245;-72
2023/03/07 18:43:05;;;;;;;12.73;7.53;;;7.30;99.90;;;;;;10319598;28;20230;-71
2023/03/07 18:48:06;;;;;;;10.87;7.30;;;7.30;99.90;;;;;;10316739;28;20228;-71
2023/03/07 18:53:06;;;;;;;10.53;6.83;;;7.30;99.90;;;;;;10307073;28;20553;-72
2023/03/07 18:58:07;;;;;;;10.90;7.00;;;7.20;99.90;;;;;;10309789;28;20249;-74
2023/03/07 19:03:07;;;;;;;10.13;7.57;;;7.30;99.90;;;;;;10308571;28;20229;-72
2023/03/07 19:08:08;;;;;;;12.97;7.03;;;7.20;99.90;;;;;;10324940;28;20222;-71
2023/03/07 19:13:09;;;;;;;8.80;6.67;;;7.30;99.90;;;;;;10306598;28;20221;-71
2023/03/07 19:18:09;;;;;;;9.83;7.13;;;7.20;99.90;;;;;;10320269;28;20708;-72
2023/03/07 19:23:10;;;;;;;9.27;7.20;;;7.20;99.90;;;;;;10306340;28;20234;-72
2023/03/07 19:28:11;;;;;;;11.10;6.80;;;7.20;99.90;;;;;;10315830;28;20222;-72
2023/03/07 19:33:13;;;;;;;10.30;6.97;;;7.30;99.90;;;;;;10318322;28;20288;-71
2023/03/07 19:38:13;;;;;;;10.00;7.00;;;7.20;99.90;;;;;;10313143;28;20232;-72
2023/03/07 19:43:14;;;;;;;13.50;7.87;;;7.20;99.90;;;;;;10319999;28;20747;-72
2023/03/07 19:48:14;;;;;;;12.40;7.80;;;7.20;99.90;;;;;;10308380;28;20222;-71
2023/03/07 19:53:15;;;;;;;8.70;7.00;;;7.10;99.90;;;;;;10319821;28;20286;-72
2023/03/07 19:58:16;;;;;;;10.47;7.47;;;7.10;99.90;;;;;;10316659;28;20218;-71
2023/03/07 20:03:18;;;;;;;9.47;7.20;;;7.10;99.90;;;;;;10310694;28;20268;-71
2023/03/07 20:08:19;;;;;;;9.57;7.43;;;7.10;99.90;;;;;;10309521;28;20222;-71
2023/03/07 20:13:19;;;;;;;9.10;6.93;;;7.20;99.90;;;;;;10312485;28;20226;-73
2023/03/07 20:18:21;;;;;;;14.87;7.43;;;7.20;99.90;;;;;;10309641;28;20217;-73
2023/03/07 20:23:24;;;;;;;10.40;7.20;;;7.10;99.90;;;;;;10312588;28;20325;-72
2023/03/07 20:28:28;;;;;;;10.33;7.27;;;7.10;99.90;;;;;;10330628;28;20236;-71
2023/03/07 20:33:29;;;;;;;9.37;7.70;;;7.10;99.90;;;;;;10311701;28;20863;-71
2023/03/07 20:38:34;;;;;;;10.47;8.90;;;7.10;99.90;;;;;;10308178;28;20509;-69
2023/03/07 20:43:34;;;;;;;9.50;7.47;;;7.10;99.90;;;;;;10307449;28;20221;-70
2023/03/07 20:48:36;;;;;;;9.60;7.10;;;7.10;99.90;;;;;;10303499;28;20222;-68
2023/03/07 20:53:36;;;;;;;11.00;7.50;;;7.10;99.90;;;;;;10312013;28;20307;-70
2023/03/07 20:58:38;;;;;;;11.23;7.67;;;7.10;99.90;;;;;;10311154;28;20222;-67
2023/03/07 21:03:38;;;;;;;11.10;7.83;;;7.10;99.90;;;;;;10313664;28;20226;-67
2023/03/07 21:08:39;;;;;;;11.40;8.20;;;7.10;99.90;;;;;;10314690;28;20233;-68
2023/03/07 21:13:41;;;;;;;10.60;7.60;;;7.10;99.90;;;;;;10317094;28;20292;-68
2023/03/07 21:18:42;;;;;;;12.33;8.40;;;7.10;99.90;;;;;;10308947;28;20225;-68
2023/03/07 21:23:43;;;;;;;11.93;8.33;;;7.10;99.90;;;;;;10332332;28;20233;-67
2023/03/07 21:28:44;;;;;;;10.40;8.07;;;7.10;99.90;;;;;;10309350;28;20230;-67
2023/03/07 21:33:50;;;;;;;11.30;8.10;;;7.10;99.90;;;;;;10323624;28;20218;-68
2023/03/07 21:38:51;;;;;;;10.43;7.90;;;7.10;99.90;;;;;;10308216;28;20223;-68
2023/03/07 21:43:54;;;;;;;10.03;8.37;;;7.10;99.90;;;;;;10321595;28;20226;-67
2023/03/07 21:48:58;;;;;;;12.13;8.73;;;7.10;99.90;;;;;;10306866;28;20254;-68
2023/03/07 21:53:58;;;;;;;10.77;8.23;;;7.10;99.90;;;;;;10326032;28;20222;-67
2023/03/07 21:58:59;;;;;;;10.90;7.97;;;7.00;99.90;;;;;;10320629;28;20219;-69
2023/03/07 22:03:59;;;;;;;12.77;7.87;;;7.00;99.90;;;;;;10313332;28;20243;-68
2023/03/07 22:09:00;;;;;;;11.60;8.37;;;7.10;99.90;;;;;;10307557;28;20223;-67
2023/03/07 22:14:00;;;;;;;12.20;8.33;;;7.10;99.90;;;;;;10312997;28;20228;-67
2023/03/07 22:19:01;;;;;;;12.47;8.00;;;7.10;99.90;;;;;;10306349;28;20597;-68
2023/03/07 22:24:02;;;;;;;11.33;7.80;;;7.00;99.90;;;;;;10320786;28;20236;-68
2023/03/07 22:29:03;;;;;;;10.53;8.50;;;7.00;99.90;;;;;;10320345;28;20309;-69
2023/03/07 22:34:04;;;;;;;13.97;8.30;;;7.00;99.90;;;;;;10317871;28;20330;-67
2023/03/07 22:39:06;;;;;;;13.27;8.67;;;7.00;99.90;;;;;;10324613;28;20325;-68
2023/03/07 22:44:10;;;;;;;10.70;6.57;;;7.00;99.90;;;;;;10306927;28;20268;-68
2023/03/07 22:49:11;;;;;;;6.03;5.40;;;6.80;99.90;;;;;;10314502;28;20242;-68
2023/03/07 22:54:12;;;;;;;5.83;4.60;;;6.50;99.90;;;;;;10312588;28;20238;-69
2023/03/07 22:59:13;;;;;;;4.53;4.13;;;6.30;99.90;;;;;;10307878;28;20699;-69
2023/03/07 23:04:13;;;;;;;6.30;4.87;;;6.10;99.90;;;;;;10309792;28;20312;-68
2023/03/07 23:09:14;;;;;;;6.23;4.77;;;6.00;99.90;;;;;;10307384;28;20229;-67
2023/03/07 23:14:14;;;;;;;9.17;4.93;;;5.90;99.90;;;;;;10309177;28;20233;-69
2023/03/07 23:19:15;;;;;;;4.80;3.87;;;5.90;99.90;;;;;;10303406;28;20226;-67
2023/03/07 23:24:16;;;;;;;5.73;4.30;;;5.80;99.90;;;;;;10307493;28;20244;-67
2023/03/07 23:29:16;;;;;;;4.23;3.77;;;5.70;99.90;;;;;;10307936;28;20316;-67
2023/03/07 23:34:19;;;;;;;4.47;4.07;;;5.70;99.90;;;;;;10312381;28;20284;-69
2023/03/07 23:39:20;;;;;;;4.07;3.67;;;5.70;99.90;;;;;;10310783;28;20225;-69
2023/03/07 23:44:20;;;;;;;3.97;3.43;;;5.70;99.90;;;;;;10314523;28;20691;-69
2023/03/07 23:49:21;;;;;;;3.50;3.20;;;5.70;99.90;;;;;;10337551;28;20227;-69
2023/03/07 23:54:21;;;;;;;3.67;3.30;;;5.60;99.90;;;;;;10314020;28;20237;-68
2023/03/07 23:59:22;;;;;;;3.60;3.30;;;5.60;99.90;;;;;;10312784;28;20755;-69
